Terminal Aerodrome Forecast
Issued by NWS

Home | Current Version | Previous Version | Text Only | Print | Product List | Glossary Off
Versions: 1 2 3 4 5 6 7 8 9 10 11 12 13 14 15

428
FTUS43 KMPX 230520
TAFRNH
TAF
KRNH 230520Z 2306/2406 27004KT P6SM SCT120
     FM231400 30014G22KT P6SM SCT025 OVC050
     FM240200 30009KT P6SM OVC050=

USA.gov is the U.S. government's official web portal to all federal, state and local government web resources and services.